sensor_id;sensor_type;location;lat;lon;timestamp;pressure;altitude;pressure_sealevel;temperature;humidity
69171;BME280;56279;47.902;12.308;2023-05-02T00:01:44;95443.16;;;10.60;94.89
69171;BME280;56279;47.902;12.308;2023-05-02T00:03:45;95442.88;;;10.61;94.88
69171;BME280;56279;47.902;12.308;2023-05-02T00:05:46;95443.94;;;10.60;94.70
69171;BME280;56279;47.902;12.308;2023-05-02T00:07:48;95447.66;;;10.59;94.75
69171;BME280;56279;47.902;12.308;2023-05-02T00:09:50;95449.50;;;10.59;94.86
69171;BME280;56279;47.902;12.308;2023-05-02T00:11:51;95449.22;;;10.60;95.07
69171;BME280;56279;47.902;12.308;2023-05-02T00:13:52;95452.94;;;10.59;94.75
69171;BME280;56279;47.902;12.308;2023-05-02T00:15:53;95458.97;;;10.60;94.89
69171;BME280;56279;47.902;12.308;2023-05-02T00:17:55;95459.25;;;10.58;94.73
69171;BME280;56279;47.902;12.308;2023-05-02T00:19:56;95459.53;;;10.57;94.98
69171;BME280;56279;47.902;12.308;2023-05-02T00:21:57;95457.94;;;10.56;94.81
69171;BME280;56279;47.902;12.308;2023-05-02T00:23:59;95455.31;;;10.56;94.78
69171;BME280;56279;47.902;12.308;2023-05-02T00:26:00;95458.75;;;10.56;94.80
69171;BME280;56279;47.902;12.308;2023-05-02T00:28:01;95459.53;;;10.57;94.80
69171;BME280;56279;47.902;12.308;2023-05-02T00:30:03;95465.59;;;10.57;94.93
69171;BME280;56279;47.902;12.308;2023-05-02T00:32:04;95452.94;;;10.59;94.81
69171;BME280;56279;47.902;12.308;2023-05-02T00:34:06;95452.94;;;10.59;94.75
69171;BME280;56279;47.902;12.308;2023-05-02T00:36:14;95455.56;;;10.59;94.66
69171;BME280;56279;47.902;12.308;2023-05-02T00:38:15;95455.56;;;10.59;94.61
69171;BME280;56279;47.902;12.308;2023-05-02T00:40:17;95445.28;;;10.58;94.58
69171;BME280;56279;47.902;12.308;2023-05-02T00:42:19;95449.00;;;10.57;94.62
69171;BME280;56279;47.902;12.308;2023-05-02T00:44:20;95445.84;;;10.55;94.59
69171;BME280;56279;47.902;12.308;2023-05-02T00:46:22;95447.16;;;10.52;94.65
69171;BME280;56279;47.902;12.308;2023-05-02T00:48:24;95453.50;;;10.51;94.65
69171;BME280;56279;47.902;12.308;2023-05-02T00:50:26;95444.03;;;10.50;94.65
69171;BME280;56279;47.902;12.308;2023-05-02T00:52:29;95443.22;;;10.50;94.86
69171;BME280;56279;47.902;12.308;2023-05-02T00:54:31;95442.44;;;10.49;94.67
69171;BME280;56279;47.902;12.308;2023-05-02T00:56:32;95445.59;;;10.51;94.79
69171;BME280;56279;47.902;12.308;2023-05-02T00:58:34;95444.03;;;10.50;94.71
69171;BME280;56279;47.902;12.308;2023-05-02T01:01:07;95437.16;;;10.49;94.48
69171;BME280;56279;47.902;12.308;2023-05-02T01:05:45;95442.44;;;10.49;94.64
69171;BME280;56279;47.902;12.308;2023-05-02T01:12:42;95446.66;;;10.50;94.47
69171;BME280;56279;47.902;12.308;2023-05-02T01:14:49;95448.50;;;10.50;94.59
69171;BME280;56279;47.902;12.308;2023-05-02T01:16:52;95453.78;;;10.50;94.57
69171;BME280;56279;47.902;12.308;2023-05-02T01:18:57;95452.69;;;10.51;94.59
69171;BME280;56279;47.902;12.308;2023-05-02T01:21:01;95458.78;;;10.51;94.33
69171;BME280;56279;47.902;12.308;2023-05-02T01:23:08;95455.34;;;10.51;94.51
69171;BME280;56279;47.902;12.308;2023-05-02T01:30:25;95460.38;;;10.52;94.63
69171;BME280;56279;47.902;12.308;2023-05-02T01:32:29;95454.00;;;10.53;94.55
69171;BME280;56279;47.902;12.308;2023-05-02T01:34:35;95461.13;;;10.53;94.65
69171;BME280;56279;47.902;12.308;2023-05-02T01:36:43;95461.94;;;10.53;94.51
69171;BME280;56279;47.902;12.308;2023-05-02T01:38:45;95467.72;;;10.55;94.70
69171;BME280;56279;47.902;12.308;2023-05-02T01:40:49;95472.22;;;10.55;94.76
69171;BME280;56279;47.902;12.308;2023-05-02T01:42:52;95459.03;;;10.55;94.78
69171;BME280;56279;47.902;12.308;2023-05-02T01:44:55;95469.31;;;10.56;94.68
69171;BME280;56279;47.902;12.308;2023-05-02T01:46:59;95465.06;;;10.55;94.86
69171;BME280;56279;47.902;12.308;2023-05-02T01:49:03;95470.09;;;10.57;94.85
69171;BME280;56279;47.902;12.308;2023-05-02T01:51:06;95473.00;;;10.55;94.70
69171;BME280;56279;47.902;12.308;2023-05-02T01:53:08;95474.88;;;10.55;94.65
69171;BME280;56279;47.902;12.308;2023-05-02T01:55:13;95466.41;;;10.53;94.82
69171;BME280;56279;47.902;12.308;2023-05-02T01:57:17;95471.69;;;10.53;94.79
69171;BME280;56279;47.902;12.308;2023-05-02T01:59:21;95474.59;;;10.51;94.63
69171;BME280;56279;47.902;12.308;2023-05-02T02:01:24;95470.41;;;10.50;94.77
69171;BME280;56279;47.902;12.308;2023-05-02T02:03:29;95469.59;;;10.50;94.83
69171;BME280;56279;47.902;12.308;2023-05-02T02:05:32;95475.94;;;10.49;94.63
69171;BME280;56279;47.902;12.308;2023-05-02T02:07:35;95472.50;;;10.48;94.74
69171;BME280;56279;47.902;12.308;2023-05-02T02:09:36;95472.00;;;10.46;94.83
69171;BME280;56279;47.902;12.308;2023-05-02T02:11:47;95468.03;;;10.43;94.49
69171;BME280;56279;47.902;12.308;2023-05-02T02:13:56;95465.97;;;10.40;94.62
69171;BME280;56279;47.902;12.308;2023-05-02T02:16:03;95471.25;;;10.40;94.43
69171;BME280;56279;47.902;12.308;2023-05-02T02:18:11;95474.13;;;10.39;94.56
69171;BME280;56279;47.902;12.308;2023-05-02T02:20:14;95474.94;;;10.39;94.45
69171;BME280;56279;47.902;12.308;2023-05-02T02:22:18;95472.31;;;10.34;94.44
69171;BME280;56279;47.902;12.308;2023-05-02T02:24:21;95468.88;;;10.34;94.29
69171;BME280;56279;47.902;12.308;2023-05-02T02:26:22;95469.94;;;10.33;94.34
69171;BME280;56279;47.902;12.308;2023-05-02T02:28:24;95469.16;;;10.32;94.20
69171;BME280;56279;47.902;12.308;2023-05-02T02:30:25;95473.63;;;10.32;94.18
69171;BME280;56279;47.902;12.308;2023-05-02T02:32:26;95472.31;;;10.29;94.38
69171;BME280;56279;47.902;12.308;2023-05-02T02:34:28;95475.25;;;10.28;94.35
69171;BME280;56279;47.902;12.308;2023-05-02T02:36:33;95484.50;;;10.25;94.29
69171;BME280;56279;47.902;12.308;2023-05-02T02:38:49;95476.59;;;10.20;94.49
69171;BME280;56279;47.902;12.308;2023-05-02T02:40:56;95483.72;;;10.20;94.62
69171;BME280;56279;47.902;12.308;2023-05-02T02:45:43;95477.91;;;10.18;94.64
69171;BME280;56279;47.902;12.308;2023-05-02T02:54:19;95488.97;;;10.20;94.60
69171;BME280;56279;47.902;12.308;2023-05-02T02:56:26;95488.97;;;10.20;94.45
69171;BME280;56279;47.902;12.308;2023-05-02T03:00:48;95485.28;;;10.21;94.63
69171;BME280;56279;47.902;12.308;2023-05-02T03:02:51;95484.50;;;10.20;94.50
69171;BME280;56279;47.902;12.308;2023-05-02T03:04:55;95486.34;;;10.20;94.65
69171;BME280;56279;47.902;12.308;2023-05-02T03:06:59;95487.41;;;10.19;94.67
69171;BME280;56279;47.902;12.308;2023-05-02T03:09:00;95489.53;;;10.17;94.85
69171;BME280;56279;47.902;12.308;2023-05-02T03:11:04;95496.94;;;10.15;94.78
69171;BME280;56279;47.902;12.308;2023-05-02T03:13:05;95489.28;;;10.13;94.62
69171;BME280;56279;47.902;12.308;2023-05-02T03:17:45;95490.06;;;10.09;94.70
69171;BME280;56279;47.902;12.308;2023-05-02T03:19:46;95495.31;;;10.09;94.54
69171;BME280;56279;47.902;12.308;2023-05-02T03:21:47;95495.31;;;10.09;94.61
69171;BME280;56279;47.902;12.308;2023-05-02T03:23:53;95490.84;;;10.09;94.74
69171;BME280;56279;47.902;12.308;2023-05-02T03:25:55;95494.28;;;10.10;94.80
69171;BME280;56279;47.902;12.308;2023-05-02T03:27:59;95496.91;;;10.10;94.81
69171;BME280;56279;47.902;12.308;2023-05-02T03:30:00;95497.72;;;10.10;94.65
69171;BME280;56279;47.902;12.308;2023-05-02T03:32:03;95500.09;;;10.12;94.49
69171;BME280;56279;47.902;12.308;2023-05-02T03:34:04;95499.31;;;10.11;94.56
69171;BME280;56279;47.902;12.308;2023-05-02T03:36:06;95505.38;;;10.12;94.54
69171;BME280;56279;47.902;12.308;2023-05-02T03:38:07;95505.09;;;10.13;94.71
69171;BME280;56279;47.902;12.308;2023-05-02T03:40:12;95506.41;;;10.16;94.63
69171;BME280;56279;47.902;12.308;2023-05-02T03:42:14;95503.53;;;10.17;94.61
69171;BME280;56279;47.902;12.308;2023-05-02T03:44:16;95507.19;;;10.21;94.33
69171;BME280;56279;47.902;12.308;2023-05-02T03:46:17;95497.44;;;10.22;94.40
69171;BME280;56279;47.902;12.308;2023-05-02T03:48:19;95510.34;;;10.23;94.32
69171;BME280;56279;47.902;12.308;2023-05-02T03:50:22;95509.03;;;10.26;94.43
69171;BME280;56279;47.902;12.308;2023-05-02T03:52:26;95519.28;;;10.27;94.45
69171;BME280;56279;47.902;12.308;2023-05-02T03:54:31;95513.75;;;10.29;94.44
69171;BME280;56279;47.902;12.308;2023-05-02T03:56:33;95517.16;;;10.29;94.44
69171;BME280;56279;47.902;12.308;2023-05-02T03:58:47;95524.56;;;10.32;94.47
69171;BME280;56279;47.902;12.308;2023-05-02T04:00:52;95525.06;;;10.34;94.47
69171;BME280;56279;47.902;12.308;2023-05-02T04:02:54;95529.00;;;10.37;94.41
69171;BME280;56279;47.902;12.308;2023-05-02T04:04:58;95532.44;;;10.37;94.46
69171;BME280;56279;47.902;12.308;2023-05-02T04:07:00;95526.09;;;10.38;94.17
69171;BME280;56279;47.902;12.308;2023-05-02T04:09:02;95534.00;;;10.38;94.16
69171;BME280;56279;47.902;12.308;2023-05-02T04:11:11;95527.19;;;10.37;94.07
69171;BME280;56279;47.902;12.308;2023-05-02T04:13:12;95532.16;;;10.39;94.07
69171;BME280;56279;47.902;12.308;2023-05-02T04:15:18;95535.31;;;10.41;94.14
69171;BME280;56279;47.902;12.308;2023-05-02T04:17:21;95538.50;;;10.43;94.04
69171;BME280;56279;47.902;12.308;2023-05-02T04:19:24;95535.88;;;10.43;93.96
69171;BME280;56279;47.902;12.308;2023-05-02T04:21:25;95535.59;;;10.45;93.75
69171;BME280;56279;47.902;12.308;2023-05-02T04:23:27;95538.22;;;10.45;93.90
69171;BME280;56279;47.902;12.308;2023-05-02T04:25:34;95544.03;;;10.47;93.80
69171;BME280;56279;47.902;12.308;2023-05-02T04:27:37;95543.75;;;10.48;93.59
69171;BME280;56279;47.902;12.308;2023-05-02T04:29:41;95547.97;;;10.49;93.86
69171;BME280;56279;47.902;12.308;2023-05-02T04:31:43;95553.25;;;10.49;93.62
69171;BME280;56279;47.902;12.308;2023-05-02T04:33:46;95554.28;;;10.48;93.46
69171;BME280;56279;47.902;12.308;2023-05-02T04:35:52;95564.31;;;10.51;93.83
69171;BME280;56279;47.902;12.308;2023-05-02T04:37:55;95560.88;;;10.51;93.83
69171;BME280;56279;47.902;12.308;2023-05-02T04:39:57;95563.28;;;10.52;93.87
69171;BME280;56279;47.902;12.308;2023-05-02T04:42:04;95565.41;;;10.50;93.78
69171;BME280;56279;47.902;12.308;2023-05-02T04:44:17;95565.41;;;10.50;93.85
69171;BME280;56279;47.902;12.308;2023-05-02T04:46:19;95575.16;;;10.50;93.85
69171;BME280;56279;47.902;12.308;2023-05-02T04:48:20;95576.72;;;10.51;93.95
69171;BME280;56279;47.902;12.308;2023-05-02T04:50:22;95583.88;;;10.50;93.92
69171;BME280;56279;47.902;12.308;2023-05-02T04:52:23;95585.44;;;10.51;93.80
69171;BME280;56279;47.902;12.308;2023-05-02T04:54:24;95584.63;;;10.51;93.80
69171;BME280;56279;47.902;12.308;2023-05-02T04:56:26;95587.28;;;10.51;93.79
69171;BME280;56279;47.902;12.308;2023-05-02T04:58:28;95599.41;;;10.52;93.83
69171;BME280;56279;47.902;12.308;2023-05-02T05:00:36;95605.50;;;10.52;93.79
69171;BME280;56279;47.902;12.308;2023-05-02T05:02:40;95597.81;;;10.51;93.25
69171;BME280;56279;47.902;12.308;2023-05-02T05:04:45;95598.34;;;10.53;93.59
69171;BME280;56279;47.902;12.308;2023-05-02T05:06:47;95603.38;;;10.54;93.55
69171;BME280;56279;47.902;12.308;2023-05-02T05:08:51;95616.28;;;10.56;93.32
69171;BME280;56279;47.902;12.308;2023-05-02T05:10:52;95612.59;;;10.57;93.11
69171;BME280;56279;47.902;12.308;2023-05-02T05:12:54;95614.16;;;10.58;93.09
69171;BME280;56279;47.902;12.308;2023-05-02T05:14:57;95622.88;;;10.58;93.35
69171;BME280;56279;47.902;12.308;2023-05-02T05:17:02;95625.53;;;10.58;93.39
69171;BME280;56279;47.902;12.308;2023-05-02T05:19:03;95630.50;;;10.60;93.18
69171;BME280;56279;47.902;12.308;2023-05-02T05:21:09;95632.09;;;10.61;93.35
69171;BME280;56279;47.902;12.308;2023-05-02T05:23:11;95640.53;;;10.63;93.36
69171;BME280;56279;47.902;12.308;2023-05-02T05:25:14;95638.94;;;10.67;93.29
69171;BME280;56279;47.902;12.308;2023-05-02T05:27:18;95640.53;;;10.68;93.28
69171;BME280;56279;47.902;12.308;2023-05-02T05:29:19;95644.75;;;10.69;93.26
69171;BME280;56279;47.902;12.308;2023-05-02T05:31:21;95642.91;;;10.69;93.27
69171;BME280;56279;47.902;12.308;2023-05-02T05:33:27;95644.22;;;10.72;93.33
69171;BME280;56279;47.902;12.308;2023-05-02T05:35:30;95651.88;;;10.73;93.12
69171;BME280;56279;47.902;12.308;2023-05-02T05:37:34;95655.28;;;10.74;93.09
69171;BME280;56279;47.902;12.308;2023-05-02T05:39:40;95655.84;;;10.76;93.22
69171;BME280;56279;47.902;12.308;2023-05-02T05:41:41;95663.19;;;10.79;93.30
69171;BME280;56279;47.902;12.308;2023-05-02T05:43:45;95656.59;;;10.81;93.07
69171;BME280;56279;47.902;12.308;2023-05-02T05:45:47;95666.34;;;10.86;93.04
69171;BME280;56279;47.902;12.308;2023-05-02T05:47:48;95660.75;;;10.92;92.63
69171;BME280;56279;47.902;12.308;2023-05-02T05:49:54;95667.88;;;10.97;92.45
69171;BME280;56279;47.902;12.308;2023-05-02T05:51:57;95664.69;;;11.00;92.28
69171;BME280;56279;47.902;12.308;2023-05-02T05:53:58;95677.91;;;11.00;92.26
69171;BME280;56279;47.902;12.308;2023-05-02T05:56:10;95674.47;;;10.99;92.30
69171;BME280;56279;47.902;12.308;2023-05-02T05:58:14;95681.56;;;11.04;92.38
69171;BME280;56279;47.902;12.308;2023-05-02T06:00:18;95685.81;;;11.05;92.33
69171;BME280;56279;47.902;12.308;2023-05-02T06:02:24;95686.59;;;11.05;92.55
69171;BME280;56279;47.902;12.308;2023-05-02T06:04:25;95693.19;;;11.08;92.08
69171;BME280;56279;47.902;12.308;2023-05-02T06:06:28;95680.25;;;11.06;92.34
69171;BME280;56279;47.902;12.308;2023-05-02T06:08:29;95684.19;;;11.09;92.24
69171;BME280;56279;47.902;12.308;2023-05-02T06:10:31;95683.94;;;11.10;92.21
69171;BME280;56279;47.902;12.308;2023-05-02T06:12:33;95693.19;;;11.13;91.96
69171;BME280;56279;47.902;12.308;2023-05-02T06:14:34;95687.34;;;11.16;91.92
69171;BME280;56279;47.902;12.308;2023-05-02T06:16:36;95693.16;;;11.18;91.96
69171;BME280;56279;47.902;12.308;2023-05-02T06:18:37;95697.88;;;11.21;91.48
69171;BME280;56279;47.902;12.308;2023-05-02T06:20:38;95687.84;;;11.23;91.51
69171;BME280;56279;47.902;12.308;2023-05-02T06:22:40;95690.47;;;11.28;91.44
69171;BME280;56279;47.902;12.308;2023-05-02T06:24:42;95694.94;;;11.33;91.12
69171;BME280;56279;47.902;12.308;2023-05-02T06:26:43;95695.19;;;11.36;90.93
69171;BME280;56279;47.902;12.308;2023-05-02T06:28:44;95701.50;;;11.40;90.96
69171;BME280;56279;47.902;12.308;2023-05-02T06:30:46;95695.13;;;11.46;90.86
69171;BME280;56279;47.902;12.308;2023-05-02T06:32:47;95699.34;;;11.47;90.55
69171;BME280;56279;47.902;12.308;2023-05-02T06:34:48;95698.28;;;11.48;89.88
69171;BME280;56279;47.902;12.308;2023-05-02T06:36:54;95703.84;;;11.47;89.60
69171;BME280;56279;47.902;12.308;2023-05-02T06:38:56;95704.34;;;11.49;89.68
69171;BME280;56279;47.902;12.308;2023-05-02T06:40:57;95702.50;;;11.54;89.73
69171;BME280;56279;47.902;12.308;2023-05-02T06:42:59;95702.72;;;11.58;89.55
69171;BME280;56279;47.902;12.308;2023-05-02T06:45:00;95710.09;;;11.66;89.46
69171;BME280;56279;47.902;12.308;2023-05-02T06:47:03;95704.53;;;11.72;89.31
69171;BME280;56279;47.902;12.308;2023-05-02T06:49:08;95702.38;;;11.79;88.85
69171;BME280;56279;47.902;12.308;2023-05-02T06:51:13;95705.22;;;11.88;88.59
69171;BME280;56279;47.902;12.308;2023-05-02T06:53:15;95709.13;;;11.96;88.39
69171;BME280;56279;47.902;12.308;2023-05-02T06:55:16;95706.66;;;12.04;87.97
69171;BME280;56279;47.902;12.308;2023-05-02T06:57:17;95712.44;;;12.11;88.13
69171;BME280;56279;47.902;12.308;2023-05-02T06:59:19;95707.09;;;12.21;87.87
69171;BME280;56279;47.902;12.308;2023-05-02T07:01:20;95713.09;;;12.32;87.20
69171;BME280;56279;47.902;12.308;2023-05-02T07:03:22;95710.09;;;12.43;87.23
69171;BME280;56279;47.902;12.308;2023-05-02T07:05:23;95703.84;;;12.58;87.14
69171;BME280;56279;47.902;12.308;2023-05-02T07:07:24;95704.03;;;12.67;86.71
69171;BME280;56279;47.902;12.308;2023-05-02T07:09:26;95712.66;;;12.77;86.37
69171;BME280;56279;47.902;12.308;2023-05-02T07:11:27;95707.25;;;12.87;86.11
69171;BME280;56279;47.902;12.308;2023-05-02T07:13:29;95710.63;;;12.93;85.46
69171;BME280;56279;47.902;12.308;2023-05-02T07:15:30;95711.09;;;13.00;84.92
69171;BME280;56279;47.902;12.308;2023-05-02T07:17:31;95720.88;;;13.04;84.94
69171;BME280;56279;47.902;12.308;2023-05-02T07:19:33;95716.09;;;13.06;84.51
69171;BME280;56279;47.902;12.308;2023-05-02T07:21:34;95717.66;;;13.07;84.56
69171;BME280;56279;47.902;12.308;2023-05-02T07:23:36;95714.97;;;13.12;84.30
69171;BME280;56279;47.902;12.308;2023-05-02T07:25:38;95720.41;;;13.21;84.43
69171;BME280;56279;47.902;12.308;2023-05-02T07:27:40;95713.16;;;13.32;84.32
69171;BME280;56279;47.902;12.308;2023-05-02T07:29:41;95712.50;;;13.40;83.75
69171;BME280;56279;47.902;12.308;2023-05-02T07:31:43;95712.69;;;13.48;83.31
69171;BME280;56279;47.902;12.308;2023-05-02T07:33:44;95711.59;;;13.49;82.84
69171;BME280;56279;47.902;12.308;2023-05-02T07:35:45;95711.31;;;13.51;82.84
69171;BME280;56279;47.902;12.308;2023-05-02T07:37:47;95720.28;;;13.55;82.18
69171;BME280;56279;47.902;12.308;2023-05-02T07:39:49;95722.06;;;13.59;81.54
69171;BME280;56279;47.902;12.308;2023-05-02T07:41:53;95719.22;;;13.56;81.06
69171;BME280;56279;47.902;12.308;2023-05-02T07:43:56;95723.06;;;13.63;81.01
69171;BME280;56279;47.902;12.308;2023-05-02T07:45:57;95724.31;;;13.71;80.42
69171;BME280;56279;47.902;12.308;2023-05-02T07:47:59;95729.31;;;13.72;80.45
69171;BME280;56279;47.902;12.308;2023-05-02T07:50:00;95730.97;;;13.68;80.66
69171;BME280;56279;47.902;12.308;2023-05-02T07:52:03;95722.88;;;13.78;81.37
69171;BME280;56279;47.902;12.308;2023-05-02T07:54:15;95725.09;;;13.90;81.08
69171;BME280;56279;47.902;12.308;2023-05-02T07:56:17;95724.81;;;13.92;80.22
69171;BME280;56279;47.902;12.308;2023-05-02T07:58:18;95729.53;;;13.95;80.33
69171;BME280;56279;47.902;12.308;2023-05-02T08:00:20;95729.91;;;14.07;79.77
69171;BME280;56279;47.902;12.308;2023-05-02T08:02:22;95729.22;;;14.15;79.49
69171;BME280;56279;47.902;12.308;2023-05-02T08:04:24;95733.34;;;14.26;79.23
69171;BME280;56279;47.902;12.308;2023-05-02T08:06:25;95734.88;;;14.27;78.42
69171;BME280;56279;47.902;12.308;2023-05-02T08:08:27;95731.69;;;14.30;79.19
69171;BME280;56279;47.902;12.308;2023-05-02T08:10:28;95732.69;;;14.34;78.60
69171;BME280;56279;47.902;12.308;2023-05-02T08:12:29;95735.84;;;14.36;78.54
69171;BME280;56279;47.902;12.308;2023-05-02T08:14:30;95733.19;;;14.36;78.45
69171;BME280;56279;47.902;12.308;2023-05-02T08:16:32;95731.63;;;14.35;78.31
69171;BME280;56279;47.902;12.308;2023-05-02T08:18:33;95738.50;;;14.36;77.86
69171;BME280;56279;47.902;12.308;2023-05-02T08:20:34;95737.44;;;14.37;78.23
69171;BME280;56279;47.902;12.308;2023-05-02T08:22:36;95734.09;;;14.45;77.87
69171;BME280;56279;47.902;12.308;2023-05-02T08:24:37;95739.06;;;14.51;77.08
69171;BME280;56279;47.902;12.308;2023-05-02T08:26:39;95738.06;;;14.61;77.27
69171;BME280;56279;47.902;12.308;2023-05-02T08:28:40;95741.06;;;14.73;76.98
69171;BME280;56279;47.902;12.308;2023-05-02T08:30:41;95743.25;;;14.85;76.82
69171;BME280;56279;47.902;12.308;2023-05-02T08:32:45;95741.78;;;14.92;75.93
69171;BME280;56279;47.902;12.308;2023-05-02T08:34:47;95746.53;;;14.95;75.70
69171;BME280;56279;47.902;12.308;2023-05-02T08:36:48;95753.22;;;15.06;75.81
69171;BME280;56279;47.902;12.308;2023-05-02T08:38:49;95745.25;;;15.06;75.25
69171;BME280;56279;47.902;12.308;2023-05-02T08:40:50;95756.28;;;15.00;75.33
69171;BME280;56279;47.902;12.308;2023-05-02T08:42:53;95750.75;;;14.96;74.95
69171;BME280;56279;47.902;12.308;2023-05-02T08:44:54;95747.00;;;14.84;74.68
69171;BME280;56279;47.902;12.308;2023-05-02T08:46:56;95754.66;;;14.72;75.08
69171;BME280;56279;47.902;12.308;2023-05-02T08:48:58;95753.25;;;14.61;74.98
69171;BME280;56279;47.902;12.308;2023-05-02T08:51:02;95763.22;;;14.50;75.60
69171;BME280;56279;47.902;12.308;2023-05-02T08:53:04;95759.09;;;14.44;75.32
69171;BME280;56279;47.902;12.308;2023-05-02T08:55:07;95760.88;;;14.48;75.48
69171;BME280;56279;47.902;12.308;2023-05-02T08:57:09;95760.69;;;14.59;74.97
69171;BME280;56279;47.902;12.308;2023-05-02T08:59:10;95767.22;;;14.66;75.02
69171;BME280;56279;47.902;12.308;2023-05-02T09:01:16;95762.31;;;14.73;74.67
69171;BME280;56279;47.902;12.308;2023-05-02T09:03:28;95769.41;;;14.78;75.12
69171;BME280;56279;47.902;12.308;2023-05-02T09:05:34;95767.06;;;14.90;74.99
69171;BME280;56279;47.902;12.308;2023-05-02T09:07:47;95773.44;;;15.07;74.42
69171;BME280;56279;47.902;12.308;2023-05-02T09:09:49;95775.22;;;15.26;74.08
69171;BME280;56279;47.902;12.308;2023-05-02T09:11:51;95774.63;;;15.42;73.56
69171;BME280;56279;47.902;12.308;2023-05-02T09:13:52;95777.22;;;15.61;72.99
69171;BME280;56279;47.902;12.308;2023-05-02T09:16:07;95780.94;;;15.73;72.56
69171;BME280;56279;47.902;12.308;2023-05-02T09:18:18;95783.28;;;15.88;72.30
69171;BME280;56279;47.902;12.308;2023-05-02T09:20:19;95781.28;;;15.94;72.33
69171;BME280;56279;47.902;12.308;2023-05-02T09:22:24;95780.13;;;16.00;72.21
69171;BME280;56279;47.902;12.308;2023-05-02T09:24:25;95782.28;;;15.98;71.64
69171;BME280;56279;47.902;12.308;2023-05-02T09:26:28;95780.59;;;16.02;71.99
69171;BME280;56279;47.902;12.308;2023-05-02T09:28:43;95781.66;;;16.01;71.55
69171;BME280;56279;47.902;12.308;2023-05-02T09:30:45;95781.69;;;15.87;72.50
69171;BME280;56279;47.902;12.308;2023-05-02T09:32:47;95793.25;;;15.83;72.29
69171;BME280;56279;47.902;12.308;2023-05-02T09:35:06;95791.00;;;15.76;72.38
69171;BME280;56279;47.902;12.308;2023-05-02T09:37:07;95783.41;;;15.70;72.42
69171;BME280;56279;47.902;12.308;2023-05-02T09:39:18;95790.13;;;15.67;72.31
69171;BME280;56279;47.902;12.308;2023-05-02T09:41:20;95794.56;;;15.58;72.30
69171;BME280;56279;47.902;12.308;2023-05-02T09:43:22;95789.34;;;15.53;71.59
69171;BME280;56279;47.902;12.308;2023-05-02T09:45:24;95791.91;;;15.45;72.54
69171;BME280;56279;47.902;12.308;2023-05-02T09:47:26;95793.84;;;15.53;72.52
69171;BME280;56279;47.902;12.308;2023-05-02T09:49:41;95791.81;;;15.63;72.71
69171;BME280;56279;47.902;12.308;2023-05-02T09:51:47;95786.06;;;15.70;72.22
69171;BME280;56279;47.902;12.308;2023-05-02T09:53:49;95791.78;;;15.77;72.41
69171;BME280;56279;47.902;12.308;2023-05-02T09:56:03;95794.59;;;15.94;71.81
69171;BME280;56279;47.902;12.308;2023-05-02T09:58:05;95794.88;;;16.06;71.94
69171;BME280;56279;47.902;12.308;2023-05-02T10:00:07;95789.34;;;16.16;71.69
69171;BME280;56279;47.902;12.308;2023-05-02T10:02:13;95794.72;;;16.25;71.01
69171;BME280;56279;47.902;12.308;2023-05-02T10:04:15;95798.19;;;16.25;70.40
69171;BME280;56279;47.902;12.308;2023-05-02T10:06:20;95796.91;;;16.23;69.92
69171;BME280;56279;47.902;12.308;2023-05-02T10:08:26;95790.72;;;16.14;70.09
69171;BME280;56279;47.902;12.308;2023-05-02T10:10:29;95793.44;;;16.00;69.38
69171;BME280;56279;47.902;12.308;2023-05-02T10:12:32;95796.69;;;15.83;68.63
69171;BME280;56279;47.902;12.308;2023-05-02T10:14:40;95801.34;;;15.64;69.34
69171;BME280;56279;47.902;12.308;2023-05-02T10:19:02;95793.47;;;15.59;69.41
69171;BME280;56279;47.902;12.308;2023-05-02T10:21:10;95794.25;;;15.60;69.49
69171;BME280;56279;47.902;12.308;2023-05-02T10:23:13;95796.50;;;15.66;69.63
69171;BME280;56279;47.902;12.308;2023-05-02T10:25:15;95793.09;;;15.66;68.98
69171;BME280;56279;47.902;12.308;2023-05-02T10:27:17;95801.75;;;15.58;69.49
69171;BME280;56279;47.902;12.308;2023-05-02T10:29:19;95801.16;;;15.61;68.91
69171;BME280;56279;47.902;12.308;2023-05-02T10:31:21;95793.94;;;15.48;69.61
69171;BME280;56279;47.902;12.308;2023-05-02T10:33:22;95797.88;;;15.37;68.89
69171;BME280;56279;47.902;12.308;2023-05-02T10:35:24;95797.38;;;15.35;69.35
69171;BME280;56279;47.902;12.308;2023-05-02T10:37:26;95799.06;;;15.31;69.36
69171;BME280;56279;47.902;12.308;2023-05-02T10:39:31;95797.56;;;15.24;69.60
69171;BME280;56279;47.902;12.308;2023-05-02T10:41:33;95799.53;;;15.19;69.62
69171;BME280;56279;47.902;12.308;2023-05-02T10:43:36;95803.97;;;15.23;70.05
69171;BME280;56279;47.902;12.308;2023-05-02T10:45:38;95805.66;;;15.33;69.26
69171;BME280;56279;47.902;12.308;2023-05-02T10:47:39;95800.81;;;15.35;68.68
69171;BME280;56279;47.902;12.308;2023-05-02T10:49:49;95804.06;;;15.32;68.91
69171;BME280;56279;47.902;12.308;2023-05-02T10:51:51;95795.59;;;15.44;68.72
69171;BME280;56279;47.902;12.308;2023-05-02T10:53:53;95795.03;;;15.60;68.34
69171;BME280;56279;47.902;12.308;2023-05-02T10:56:19;95796.31;;;15.76;68.39
69171;BME280;56279;47.902;12.308;2023-05-02T10:58:25;95807.91;;;15.94;68.08
69171;BME280;56279;47.902;12.308;2023-05-02T11:00:28;95800.81;;;16.03;67.71
69171;BME280;56279;47.902;12.308;2023-05-02T11:07:20;95806.28;;;16.20;66.92
69171;BME280;56279;47.902;12.308;2023-05-02T11:11:41;95802.03;;;16.33;66.06
69171;BME280;56279;47.902;12.308;2023-05-02T11:13:49;95799.25;;;16.38;65.36
69171;BME280;56279;47.902;12.308;2023-05-02T11:18:04;95799.22;;;16.51;65.19
69171;BME280;56279;47.902;12.308;2023-05-02T11:24:36;95797.78;;;16.32;65.03
69171;BME280;56279;47.902;12.308;2023-05-02T11:26:39;95794.47;;;16.26;64.83
69171;BME280;56279;47.902;12.308;2023-05-02T11:28:42;95787.66;;;16.20;64.58